Valparaiso, FL

1:38 PM CDT on March 31, 2015 (GMT -0500)
Pear Tree Observatory | | Change Station
CLOSE
Current Station
Personal Weather Station
Location: Valparaiso, FL
Elevation: 80 ft
Nearby Weather Stations

Elev 80 ft 30.51 °N, 86.50 °W | Updated 10 seconds ago

Mostly Cloudy
Mostly Cloudy
84.0 °F
Feels Like 87 °F
N
2.0
Wind Variable Wind from SW
Gusts 7.0 mph

Today
High -- | Low -- °F
--% Chance of Precip.
Yesterday
High -- | Low -- °F
Precip. -- in
6:36 AM 7:04 PM
Waxing Gibbous, 88% visible
Pressure 30.12 in
Visibility 10.0 miles
Clouds Scattered Clouds 4500 ft
Scattered Clouds 13000 ft
Mostly Cloudy 20000 ft
Heat Index 87 °F
Dew Point 68 °F
Humidity 59%
Rainfall 0.00 in
Snow Depth Not available.
UV 6 out of 12
Pollen 10.60 out of 12
Air Quality Not available.
Flu Activity Not available.
METAR KVPS 311755Z 21011G15KT 10SM SCT045 SCT130 BKN200 26/18 A3010 RMK AO2A SLP199 T02570179 10266 20177 58011 $

More Conditions Fewer Conditions

Pressure 30.12 in
Visibility 10.0 miles
Clouds Scattered Clouds 4500 ft
Scattered Clouds 13000 ft
Mostly Cloudy 20000 ft
Heat Index 87 °F
Dew Point 68 °F
Humidity 59%
Rainfall 0.00 in
Snow Depth Not available.
UV 6 out of 12
Pollen 10.60 out of 12
Air Quality Not available.
Flu Activity Not available.
METAR KVPS 311755Z 21011G15KT 10SM SCT045 SCT130 BKN200 26/18 A3010 RMK AO2A SLP199 T02570179 10266 20177 58011 $

More Conditions Fewer Conditions

10-Day Weather Forecast

Almanac

Astronomy

Mar. 31, 2015 Rise Set
Actual Time
Civil Twilight
Nautical Twilight
Astronomical Twilight
Moon
Length of Visible Light
Length of Day
Tomorrow will be .
, % of the Moon is Illuminated

Today's Extremes

State Highs State Lows

Community

WunderPhotos

Upload Photos

1,809,786 photos uploaded!

WunderBlogs® & News

Nearby

Air Quality

  Air Quality AQ Index Pollutant
Not available.

Snow Depth

Station Depth Elevation

Earthquake Activity

City Distance Mag. Time & Date
Minimum magnitude displayed is 2.5.

Coastal Water Temperatures

Place Temperature

Stations

Nearby Weather Stations

Station Location Temp. Windchill Dew Point Humidity Wind Precip. Elev Updated Type